sensor_id;sensor_type;location;lat;lon;timestamp;P1;durP1;ratioP1;P2;durP2;ratioP2
21611;SDS011;47005;52.292;13.452;2023-04-15T00:02:15;19.17;;;15.50;;
21611;SDS011;47005;52.292;13.452;2023-04-15T00:04:42;19.67;;;14.60;;
21611;SDS011;47005;52.292;13.452;2023-04-15T00:07:11;20.77;;;15.43;;
21611;SDS011;47005;52.292;13.452;2023-04-15T00:09:37;18.27;;;13.30;;
21611;SDS011;47005;52.292;13.452;2023-04-15T00:12:03;20.53;;;15.20;;
21611;SDS011;47005;52.292;13.452;2023-04-15T00:14:29;23.53;;;14.63;;
21611;SDS011;47005;52.292;13.452;2023-04-15T00:16:55;18.50;;;14.53;;
21611;SDS011;47005;52.292;13.452;2023-04-15T00:19:21;21.33;;;14.47;;
21611;SDS011;47005;52.292;13.452;2023-04-15T00:21:48;24.40;;;15.70;;
21611;SDS011;47005;52.292;13.452;2023-04-15T00:24:14;18.50;;;14.93;;
21611;SDS011;47005;52.292;13.452;2023-04-15T00:26:40;21.67;;;15.07;;
21611;SDS011;47005;52.292;13.452;2023-04-15T00:29:09;21.10;;;15.77;;
21611;SDS011;47005;52.292;13.452;2023-04-15T00:31:34;21.23;;;14.83;;
21611;SDS011;47005;52.292;13.452;2023-04-15T00:34:00;20.47;;;15.50;;
21611;SDS011;47005;52.292;13.452;2023-04-15T00:36:26;22.07;;;15.37;;
21611;SDS011;47005;52.292;13.452;2023-04-15T00:38:52;21.27;;;16.03;;
21611;SDS011;47005;52.292;13.452;2023-04-15T00:41:18;20.07;;;15.97;;
21611;SDS011;47005;52.292;13.452;2023-04-15T00:43:44;20.10;;;15.37;;
21611;SDS011;47005;52.292;13.452;2023-04-15T00:46:11;21.07;;;15.87;;
21611;SDS011;47005;52.292;13.452;2023-04-15T00:48:39;21.97;;;15.27;;
21611;SDS011;47005;52.292;13.452;2023-04-15T00:51:06;22.03;;;16.57;;
21611;SDS011;47005;52.292;13.452;2023-04-15T00:53:33;25.10;;;16.60;;
21611;SDS011;47005;52.292;13.452;2023-04-15T00:55:59;21.63;;;15.90;;
21611;SDS011;47005;52.292;13.452;2023-04-15T00:58:25;25.53;;;17.97;;
21611;SDS011;47005;52.292;13.452;2023-04-15T01:00:52;25.63;;;18.53;;
21611;SDS011;47005;52.292;13.452;2023-04-15T01:03:19;26.20;;;18.23;;
21611;SDS011;47005;52.292;13.452;2023-04-15T01:05:45;24.87;;;16.47;;
21611;SDS011;47005;52.292;13.452;2023-04-15T01:08:11;23.17;;;17.70;;
21611;SDS011;47005;52.292;13.452;2023-04-15T01:10:37;23.30;;;17.77;;
21611;SDS011;47005;52.292;13.452;2023-04-15T01:13:03;25.10;;;17.93;;
21611;SDS011;47005;52.292;13.452;2023-04-15T01:15:30;25.97;;;18.13;;
21611;SDS011;47005;52.292;13.452;2023-04-15T01:17:59;22.83;;;18.07;;
21611;SDS011;47005;52.292;13.452;2023-04-15T01:20:26;27.83;;;19.37;;
21611;SDS011;47005;52.292;13.452;2023-04-15T01:22:53;28.17;;;17.53;;
21611;SDS011;47005;52.292;13.452;2023-04-15T01:25:27;26.27;;;17.53;;
21611;SDS011;47005;52.292;13.452;2023-04-15T01:27:56;27.13;;;18.23;;
21611;SDS011;47005;52.292;13.452;2023-04-15T01:30:23;23.73;;;16.70;;
21611;SDS011;47005;52.292;13.452;2023-04-15T01:32:49;25.57;;;18.13;;
21611;SDS011;47005;52.292;13.452;2023-04-15T01:35:15;28.60;;;18.63;;
21611;SDS011;47005;52.292;13.452;2023-04-15T01:37:41;31.07;;;21.70;;
21611;SDS011;47005;52.292;13.452;2023-04-15T01:40:07;29.73;;;20.77;;
21611;SDS011;47005;52.292;13.452;2023-04-15T01:42:34;28.27;;;20.20;;
21611;SDS011;47005;52.292;13.452;2023-04-15T01:45:00;29.80;;;21.70;;
21611;SDS011;47005;52.292;13.452;2023-04-15T01:47:26;28.77;;;19.33;;
21611;SDS011;47005;52.292;13.452;2023-04-15T01:49:52;31.27;;;19.77;;
21611;SDS011;47005;52.292;13.452;2023-04-15T01:52:20;25.20;;;19.13;;
21611;SDS011;47005;52.292;13.452;2023-04-15T01:54:46;25.63;;;18.80;;
21611;SDS011;47005;52.292;13.452;2023-04-15T01:57:12;29.50;;;19.70;;
21611;SDS011;47005;52.292;13.452;2023-04-15T01:59:37;24.27;;;18.50;;
21611;SDS011;47005;52.292;13.452;2023-04-15T02:02:03;27.20;;;20.00;;
21611;SDS011;47005;52.292;13.452;2023-04-15T02:04:29;28.73;;;21.30;;
21611;SDS011;47005;52.292;13.452;2023-04-15T02:06:55;29.37;;;18.60;;
21611;SDS011;47005;52.292;13.452;2023-04-15T02:09:21;30.00;;;20.53;;
21611;SDS011;47005;52.292;13.452;2023-04-15T02:11:46;30.90;;;19.53;;
21611;SDS011;47005;52.292;13.452;2023-04-15T02:14:12;29.77;;;19.53;;
21611;SDS011;47005;52.292;13.452;2023-04-15T02:16:38;27.60;;;19.20;;
21611;SDS011;47005;52.292;13.452;2023-04-15T02:19:07;27.60;;;18.47;;
21611;SDS011;47005;52.292;13.452;2023-04-15T02:21:33;29.20;;;21.30;;
21611;SDS011;47005;52.292;13.452;2023-04-15T02:23:59;31.30;;;19.57;;
21611;SDS011;47005;52.292;13.452;2023-04-15T02:26:26;31.00;;;20.53;;
21611;SDS011;47005;52.292;13.452;2023-04-15T02:28:52;29.60;;;21.20;;
21611;SDS011;47005;52.292;13.452;2023-04-15T02:31:17;29.83;;;21.03;;
21611;SDS011;47005;52.292;13.452;2023-04-15T02:33:43;28.37;;;21.03;;
21611;SDS011;47005;52.292;13.452;2023-04-15T02:36:09;31.90;;;20.13;;
21611;SDS011;47005;52.292;13.452;2023-04-15T02:38:36;34.10;;;20.87;;
21611;SDS011;47005;52.292;13.452;2023-04-15T02:41:04;30.20;;;21.20;;
21611;SDS011;47005;52.292;13.452;2023-04-15T02:43:30;34.53;;;20.13;;
21611;SDS011;47005;52.292;13.452;2023-04-15T02:45:55;30.00;;;21.73;;
21611;SDS011;47005;52.292;13.452;2023-04-15T02:48:21;26.60;;;18.70;;
21611;SDS011;47005;52.292;13.452;2023-04-15T02:50:46;29.80;;;21.70;;
21611;SDS011;47005;52.292;13.452;2023-04-15T02:53:12;34.60;;;23.33;;
21611;SDS011;47005;52.292;13.452;2023-04-15T02:55:38;41.17;;;21.13;;
21611;SDS011;47005;52.292;13.452;2023-04-15T02:58:04;31.23;;;20.37;;
21611;SDS011;47005;52.292;13.452;2023-04-15T03:00:31;27.30;;;20.00;;
21611;SDS011;47005;52.292;13.452;2023-04-15T03:02:57;31.33;;;19.30;;
21611;SDS011;47005;52.292;13.452;2023-04-15T03:05:26;31.43;;;21.37;;
21611;SDS011;47005;52.292;13.452;2023-04-15T03:07:51;34.33;;;21.73;;
21611;SDS011;47005;52.292;13.452;2023-04-15T03:10:17;33.10;;;20.90;;
21611;SDS011;47005;52.292;13.452;2023-04-15T03:12:44;28.63;;;20.20;;
21611;SDS011;47005;52.292;13.452;2023-04-15T03:15:09;28.43;;;19.93;;
21611;SDS011;47005;52.292;13.452;2023-04-15T03:17:35;30.23;;;21.03;;
21611;SDS011;47005;52.292;13.452;2023-04-15T03:20:02;34.67;;;21.20;;
21611;SDS011;47005;52.292;13.452;2023-04-15T03:22:29;26.10;;;18.17;;
21611;SDS011;47005;52.292;13.452;2023-04-15T03:24:55;28.30;;;20.83;;
21611;SDS011;47005;52.292;13.452;2023-04-15T03:27:21;30.60;;;20.67;;
21611;SDS011;47005;52.292;13.452;2023-04-15T03:29:47;33.20;;;20.10;;
21611;SDS011;47005;52.292;13.452;2023-04-15T03:32:13;31.20;;;19.97;;
21611;SDS011;47005;52.292;13.452;2023-04-15T03:34:39;24.33;;;17.97;;
21611;SDS011;47005;52.292;13.452;2023-04-15T03:37:05;28.60;;;19.70;;
21611;SDS011;47005;52.292;13.452;2023-04-15T03:39:31;26.60;;;18.57;;
21611;SDS011;47005;52.292;13.452;2023-04-15T03:41:57;28.27;;;18.93;;
21611;SDS011;47005;52.292;13.452;2023-04-15T03:44:23;32.10;;;19.77;;
21611;SDS011;47005;52.292;13.452;2023-04-15T03:46:50;29.17;;;19.20;;
21611;SDS011;47005;52.292;13.452;2023-04-15T03:49:16;27.80;;;18.93;;
21611;SDS011;47005;52.292;13.452;2023-04-15T03:51:43;27.83;;;18.07;;
21611;SDS011;47005;52.292;13.452;2023-04-15T03:54:09;28.47;;;17.50;;
21611;SDS011;47005;52.292;13.452;2023-04-15T03:56:35;32.03;;;19.60;;
21611;SDS011;47005;52.292;13.452;2023-04-15T03:59:01;30.27;;;17.17;;
21611;SDS011;47005;52.292;13.452;2023-04-15T04:01:26;29.97;;;19.10;;
21611;SDS011;47005;52.292;13.452;2023-04-15T04:03:52;30.23;;;19.17;;
21611;SDS011;47005;52.292;13.452;2023-04-15T04:06:18;29.37;;;19.87;;
21611;SDS011;47005;52.292;13.452;2023-04-15T04:08:44;25.10;;;19.07;;
21611;SDS011;47005;52.292;13.452;2023-04-15T04:11:10;28.57;;;18.67;;
21611;SDS011;47005;52.292;13.452;2023-04-15T04:13:35;26.17;;;17.00;;
21611;SDS011;47005;52.292;13.452;2023-04-15T04:16:01;30.30;;;18.13;;
21611;SDS011;47005;52.292;13.452;2023-04-15T04:18:28;26.17;;;17.70;;
21611;SDS011;47005;52.292;13.452;2023-04-15T04:20:55;27.73;;;17.87;;
21611;SDS011;47005;52.292;13.452;2023-04-15T04:23:21;27.73;;;17.00;;
21611;SDS011;47005;52.292;13.452;2023-04-15T04:25:46;29.43;;;18.37;;
21611;SDS011;47005;52.292;13.452;2023-04-15T04:28:12;25.20;;;18.43;;
21611;SDS011;47005;52.292;13.452;2023-04-15T04:30:38;24.13;;;16.97;;
21611;SDS011;47005;52.292;13.452;2023-04-15T04:33:04;26.97;;;17.03;;
21611;SDS011;47005;52.292;13.452;2023-04-15T04:35:30;25.73;;;17.67;;
21611;SDS011;47005;52.292;13.452;2023-04-15T04:37:58;24.50;;;17.63;;
21611;SDS011;47005;52.292;13.452;2023-04-15T04:40:25;29.80;;;17.83;;
21611;SDS011;47005;52.292;13.452;2023-04-15T04:42:51;26.40;;;17.77;;
21611;SDS011;47005;52.292;13.452;2023-04-15T04:45:17;29.67;;;19.27;;
21611;SDS011;47005;52.292;13.452;2023-04-15T04:47:43;32.67;;;17.37;;
21611;SDS011;47005;52.292;13.452;2023-04-15T04:50:09;23.37;;;15.87;;
21611;SDS011;47005;52.292;13.452;2023-04-15T04:52:35;26.10;;;18.20;;
21611;SDS011;47005;52.292;13.452;2023-04-15T04:55:00;26.80;;;15.17;;
21611;SDS011;47005;52.292;13.452;2023-04-15T04:57:26;25.93;;;16.10;;
21611;SDS011;47005;52.292;13.452;2023-04-15T04:59:52;22.20;;;14.97;;
21611;SDS011;47005;52.292;13.452;2023-04-15T05:02:17;25.07;;;16.87;;
21611;SDS011;47005;52.292;13.452;2023-04-15T05:04:43;25.77;;;17.00;;
21611;SDS011;47005;52.292;13.452;2023-04-15T05:07:08;26.90;;;16.47;;
21611;SDS011;47005;52.292;13.452;2023-04-15T05:09:34;24.10;;;15.23;;
21611;SDS011;47005;52.292;13.452;2023-04-15T05:12:01;23.40;;;15.63;;
21611;SDS011;47005;52.292;13.452;2023-04-15T05:14:28;25.40;;;15.73;;
21611;SDS011;47005;52.292;13.452;2023-04-15T05:16:53;25.63;;;16.17;;
21611;SDS011;47005;52.292;13.452;2023-04-15T05:19:19;26.07;;;16.30;;
21611;SDS011;47005;52.292;13.452;2023-04-15T05:21:44;24.10;;;16.40;;
21611;SDS011;47005;52.292;13.452;2023-04-15T05:24:10;27.40;;;16.07;;
21611;SDS011;47005;52.292;13.452;2023-04-15T05:26:36;26.37;;;15.70;;
21611;SDS011;47005;52.292;13.452;2023-04-15T05:29:01;24.63;;;16.53;;
21611;SDS011;47005;52.292;13.452;2023-04-15T05:31:27;21.57;;;14.60;;
21611;SDS011;47005;52.292;13.452;2023-04-15T05:33:53;19.33;;;15.07;;
21611;SDS011;47005;52.292;13.452;2023-04-15T05:36:18;20.73;;;14.73;;
21611;SDS011;47005;52.292;13.452;2023-04-15T05:38:45;21.40;;;15.23;;
21611;SDS011;47005;52.292;13.452;2023-04-15T05:41:10;20.17;;;14.37;;
21611;SDS011;47005;52.292;13.452;2023-04-15T05:43:36;19.83;;;13.73;;
21611;SDS011;47005;52.292;13.452;2023-04-15T05:46:02;22.13;;;15.00;;
21611;SDS011;47005;52.292;13.452;2023-04-15T05:48:27;23.67;;;14.17;;
21611;SDS011;47005;52.292;13.452;2023-04-15T05:50:53;22.13;;;14.57;;
21611;SDS011;47005;52.292;13.452;2023-04-15T05:53:19;15.70;;;12.20;;
21611;SDS011;47005;52.292;13.452;2023-04-15T05:55:44;22.03;;;14.03;;
21611;SDS011;47005;52.292;13.452;2023-04-15T05:58:10;19.37;;;12.67;;
21611;SDS011;47005;52.292;13.452;2023-04-15T06:00:36;16.33;;;11.50;;
21611;SDS011;47005;52.292;13.452;2023-04-15T06:03:02;16.20;;;11.47;;
21611;SDS011;47005;52.292;13.452;2023-04-15T06:05:28;14.10;;;10.80;;
21611;SDS011;47005;52.292;13.452;2023-04-15T06:07:54;19.80;;;12.83;;
21611;SDS011;47005;52.292;13.452;2023-04-15T06:10:20;15.77;;;12.37;;
21611;SDS011;47005;52.292;13.452;2023-04-15T06:12:46;16.57;;;11.17;;
21611;SDS011;47005;52.292;13.452;2023-04-15T06:15:12;14.23;;;10.07;;
21611;SDS011;47005;52.292;13.452;2023-04-15T06:17:38;17.27;;;11.13;;
21611;SDS011;47005;52.292;13.452;2023-04-15T06:20:04;14.13;;;10.60;;
21611;SDS011;47005;52.292;13.452;2023-04-15T06:22:29;13.03;;;10.63;;
21611;SDS011;47005;52.292;13.452;2023-04-15T06:24:55;15.07;;;10.73;;
21611;SDS011;47005;52.292;13.452;2023-04-15T06:27:21;13.97;;;10.43;;
21611;SDS011;47005;52.292;13.452;2023-04-15T06:29:47;15.00;;;10.80;;
21611;SDS011;47005;52.292;13.452;2023-04-15T06:32:12;13.40;;;10.23;;
21611;SDS011;47005;52.292;13.452;2023-04-15T06:34:38;16.63;;;10.20;;
21611;SDS011;47005;52.292;13.452;2023-04-15T06:37:04;18.23;;;9.73;;
21611;SDS011;47005;52.292;13.452;2023-04-15T06:39:30;15.37;;;9.63;;
21611;SDS011;47005;52.292;13.452;2023-04-15T06:41:56;15.23;;;10.80;;
21611;SDS011;47005;52.292;13.452;2023-04-15T06:44:22;13.67;;;10.23;;
21611;SDS011;47005;52.292;13.452;2023-04-15T06:46:47;15.00;;;10.00;;
21611;SDS011;47005;52.292;13.452;2023-04-15T06:49:13;14.50;;;9.87;;
21611;SDS011;47005;52.292;13.452;2023-04-15T06:51:39;17.03;;;9.17;;
21611;SDS011;47005;52.292;13.452;2023-04-15T06:54:06;14.90;;;9.90;;
21611;SDS011;47005;52.292;13.452;2023-04-15T06:56:32;14.87;;;9.37;;
21611;SDS011;47005;52.292;13.452;2023-04-15T06:58:58;14.10;;;9.67;;
21611;SDS011;47005;52.292;13.452;2023-04-15T07:01:23;12.60;;;8.83;;
21611;SDS011;47005;52.292;13.452;2023-04-15T07:03:50;13.87;;;9.40;;
21611;SDS011;47005;52.292;13.452;2023-04-15T07:06:15;13.17;;;10.10;;
21611;SDS011;47005;52.292;13.452;2023-04-15T07:08:41;12.93;;;9.07;;
21611;SDS011;47005;52.292;13.452;2023-04-15T07:11:07;12.20;;;9.03;;
21611;SDS011;47005;52.292;13.452;2023-04-15T07:13:32;11.00;;;8.80;;
21611;SDS011;47005;52.292;13.452;2023-04-15T07:15:58;11.53;;;8.97;;
21611;SDS011;47005;52.292;13.452;2023-04-15T07:18:24;13.83;;;9.43;;
21611;SDS011;47005;52.292;13.452;2023-04-15T07:20:50;18.23;;;9.67;;
21611;SDS011;47005;52.292;13.452;2023-04-15T07:23:16;12.83;;;9.03;;
21611;SDS011;47005;52.292;13.452;2023-04-15T07:25:42;13.87;;;10.07;;
21611;SDS011;47005;52.292;13.452;2023-04-15T07:28:07;14.40;;;9.33;;
21611;SDS011;47005;52.292;13.452;2023-04-15T07:30:33;14.50;;;10.33;;
21611;SDS011;47005;52.292;13.452;2023-04-15T07:33:00;15.50;;;10.47;;
21611;SDS011;47005;52.292;13.452;2023-04-15T07:35:26;17.07;;;9.23;;
21611;SDS011;47005;52.292;13.452;2023-04-15T07:37:53;16.93;;;9.57;;
21611;SDS011;47005;52.292;13.452;2023-04-15T07:40:18;13.60;;;9.73;;
21611;SDS011;47005;52.292;13.452;2023-04-15T07:42:44;11.77;;;9.63;;
21611;SDS011;47005;52.292;13.452;2023-04-15T07:45:16;14.07;;;10.43;;
21611;SDS011;47005;52.292;13.452;2023-04-15T07:47:41;12.83;;;10.10;;
21611;SDS011;47005;52.292;13.452;2023-04-15T07:50:08;13.70;;;9.47;;
21611;SDS011;47005;52.292;13.452;2023-04-15T07:52:35;14.27;;;11.10;;
21611;SDS011;47005;52.292;13.452;2023-04-15T07:55:04;12.50;;;9.60;;
21611;SDS011;47005;52.292;13.452;2023-04-15T07:57:32;13.90;;;10.27;;
21611;SDS011;47005;52.292;13.452;2023-04-15T08:00:01;14.37;;;10.10;;
21611;SDS011;47005;52.292;13.452;2023-04-15T08:02:31;11.13;;;8.83;;
21611;SDS011;47005;52.292;13.452;2023-04-15T08:04:57;15.50;;;11.03;;
21611;SDS011;47005;52.292;13.452;2023-04-15T08:07:23;15.23;;;10.33;;
21611;SDS011;47005;52.292;13.452;2023-04-15T08:09:50;14.53;;;10.83;;
21611;SDS011;47005;52.292;13.452;2023-04-15T08:12:16;13.07;;;10.60;;
21611;SDS011;47005;52.292;13.452;2023-04-15T08:14:41;12.53;;;9.97;;
21611;SDS011;47005;52.292;13.452;2023-04-15T08:17:07;12.20;;;9.77;;
21611;SDS011;47005;52.292;13.452;2023-04-15T08:19:33;14.53;;;10.10;;
21611;SDS011;47005;52.292;13.452;2023-04-15T08:22:02;13.83;;;10.20;;
21611;SDS011;47005;52.292;13.452;2023-04-15T08:24:28;13.97;;;10.63;;
21611;SDS011;47005;52.292;13.452;2023-04-15T08:26:55;14.23;;;10.20;;
21611;SDS011;47005;52.292;13.452;2023-04-15T08:29:21;12.33;;;10.13;;
21611;SDS011;47005;52.292;13.452;2023-04-15T08:31:47;17.23;;;10.60;;
21611;SDS011;47005;52.292;13.452;2023-04-15T08:34:13;15.23;;;10.17;;
21611;SDS011;47005;52.292;13.452;2023-04-15T08:36:39;14.67;;;10.20;;
21611;SDS011;47005;52.292;13.452;2023-04-15T08:39:05;15.93;;;10.80;;
21611;SDS011;47005;52.292;13.452;2023-04-15T08:41:33;16.70;;;10.43;;
21611;SDS011;47005;52.292;13.452;2023-04-15T08:44:18;13.73;;;11.90;;
21611;SDS011;47005;52.292;13.452;2023-04-15T08:46:50;15.83;;;11.53;;
21611;SDS011;47005;52.292;13.452;2023-04-15T08:49:17;15.87;;;10.17;;
21611;SDS011;47005;52.292;13.452;2023-04-15T08:51:50;12.67;;;11.27;;
21611;SDS011;47005;52.292;13.452;2023-04-15T08:54:15;14.37;;;11.37;;
21611;SDS011;47005;52.292;13.452;2023-04-15T08:56:42;19.93;;;11.73;;
21611;SDS011;47005;52.292;13.452;2023-04-15T08:59:08;15.63;;;11.43;;
21611;SDS011;47005;52.292;13.452;2023-04-15T09:01:35;14.73;;;11.50;;
21611;SDS011;47005;52.292;13.452;2023-04-15T09:04:02;15.90;;;11.47;;
21611;SDS011;47005;52.292;13.452;2023-04-15T09:06:30;12.27;;;9.87;;
21611;SDS011;47005;52.292;13.452;2023-04-15T09:08:56;16.53;;;11.10;;
21611;SDS011;47005;52.292;13.452;2023-04-15T09:11:21;13.70;;;11.33;;
21611;SDS011;47005;52.292;13.452;2023-04-15T09:13:48;14.10;;;10.77;;
21611;SDS011;47005;52.292;13.452;2023-04-15T09:16:13;13.37;;;9.63;;
21611;SDS011;47005;52.292;13.452;2023-04-15T09:18:39;13.67;;;11.13;;
21611;SDS011;47005;52.292;13.452;2023-04-15T09:21:06;18.20;;;11.13;;
21611;SDS011;47005;52.292;13.452;2023-04-15T09:23:33;13.63;;;10.37;;
21611;SDS011;47005;52.292;13.452;2023-04-15T09:26:00;12.50;;;10.20;;
21611;SDS011;47005;52.292;13.452;2023-04-15T09:28:27;14.37;;;10.27;;
21611;SDS011;47005;52.292;13.452;2023-04-15T09:30:59;12.27;;;9.83;;
21611;SDS011;47005;52.292;13.452;2023-04-15T09:33:26;13.07;;;10.03;;
21611;SDS011;47005;52.292;13.452;2023-04-15T09:35:57;13.83;;;9.70;;
21611;SDS011;47005;52.292;13.452;2023-04-15T09:38:24;13.87;;;9.93;;
21611;SDS011;47005;52.292;13.452;2023-04-15T09:40:50;13.83;;;10.03;;
21611;SDS011;47005;52.292;13.452;2023-04-15T09:43:16;11.83;;;9.73;;
21611;SDS011;47005;52.292;13.452;2023-04-15T09:45:48;10.37;;;8.50;;
21611;SDS011;47005;52.292;13.452;2023-04-15T09:48:24;13.10;;;9.47;;
21611;SDS011;47005;52.292;13.452;2023-04-15T09:50:52;12.23;;;8.93;;
21611;SDS011;47005;52.292;13.452;2023-04-15T09:53:21;11.83;;;8.53;;
21611;SDS011;47005;52.292;13.452;2023-04-15T09:58:39;16.27;;;9.30;;
21611;SDS011;47005;52.292;13.452;2023-04-15T10:01:06;11.47;;;8.53;;
21611;SDS011;47005;52.292;13.452;2023-04-15T10:03:33;10.47;;;8.27;;
21611;SDS011;47005;52.292;13.452;2023-04-15T10:06:01;11.07;;;8.70;;
21611;SDS011;47005;52.292;13.452;2023-04-15T10:08:29;12.97;;;8.83;;
21611;SDS011;47005;52.292;13.452;2023-04-15T10:10:56;13.83;;;8.80;;
21611;SDS011;47005;52.292;13.452;2023-04-15T10:13:24;13.43;;;9.00;;
21611;SDS011;47005;52.292;13.452;2023-04-15T10:18:19;13.37;;;8.47;;
21611;SDS011;47005;52.292;13.452;2023-04-15T10:20:48;9.47;;;7.83;;
21611;SDS011;47005;52.292;13.452;2023-04-15T10:23:15;11.03;;;8.37;;
21611;SDS011;47005;52.292;13.452;2023-04-15T10:25:42;9.77;;;8.40;;
21611;SDS011;47005;52.292;13.452;2023-04-15T10:28:10;12.23;;;8.30;;
21611;SDS011;47005;52.292;13.452;2023-04-15T10:30:36;10.27;;;8.57;;
21611;SDS011;47005;52.292;13.452;2023-04-15T10:33:02;11.07;;;9.17;;
21611;SDS011;47005;52.292;13.452;2023-04-15T10:35:30;12.17;;;8.07;;
21611;SDS011;47005;52.292;13.452;2023-04-15T10:37:57;9.27;;;7.57;;
21611;SDS011;47005;52.292;13.452;2023-04-15T10:40:27;11.80;;;8.40;;
21611;SDS011;47005;52.292;13.452;2023-04-15T10:42:56;11.43;;;9.47;;
21611;SDS011;47005;52.292;13.452;2023-04-15T10:45:43;10.77;;;8.03;;
21611;SDS011;47005;52.292;13.452;2023-04-15T10:48:09;9.63;;;8.40;;
21611;SDS011;47005;52.292;13.452;2023-04-15T10:50:41;9.80;;;7.70;;
21611;SDS011;47005;52.292;13.452;2023-04-15T10:53:26;10.60;;;8.10;;
21611;SDS011;47005;52.292;13.452;2023-04-15T10:55:53;10.97;;;7.83;;
21611;SDS011;47005;52.292;13.452;2023-04-15T10:58:22;9.63;;;8.43;;
21611;SDS011;47005;52.292;13.452;2023-04-15T11:00:49;10.13;;;8.03;;
21611;SDS011;47005;52.292;13.452;2023-04-15T11:03:20;10.53;;;8.90;;
21611;SDS011;47005;52.292;13.452;2023-04-15T11:06:02;11.00;;;7.70;;
21611;SDS011;47005;52.292;13.452;2023-04-15T11:09:15;9.90;;;8.00;;
21611;SDS011;47005;52.292;13.452;2023-04-15T11:11:20;12.73;;;9.07;;
21611;SDS011;47005;52.292;13.452;2023-04-15T11:13:47;9.47;;;7.37;;
21611;SDS011;47005;52.292;13.452;2023-04-15T11:16:13;9.30;;;7.97;;
21611;SDS011;47005;52.292;13.452;2023-04-15T11:18:39;9.83;;;8.03;;
21611;SDS011;47005;52.292;13.452;2023-04-15T11:21:05;9.97;;;8.27;;
21611;SDS011;47005;52.292;13.452;2023-04-15T11:23:33;9.23;;;7.83;;
21611;SDS011;47005;52.292;13.452;2023-04-15T11:26:12;9.13;;;7.47;;
21611;SDS011;47005;52.292;13.452;2023-04-15T11:28:39;13.23;;;8.63;;
21611;SDS011;47005;52.292;13.452;2023-04-15T11:31:16;11.13;;;7.50;;
21611;SDS011;47005;52.292;13.452;2023-04-15T11:33:46;11.10;;;8.07;;
21611;SDS011;47005;52.292;13.452;2023-04-15T11:36:18;8.70;;;6.93;;
21611;SDS011;47005;52.292;13.452;2023-04-15T11:38:45;10.77;;;8.83;;
21611;SDS011;47005;52.292;13.452;2023-04-15T11:41:11;9.93;;;7.80;;
21611;SDS011;47005;52.292;13.452;2023-04-15T11:43:37;10.83;;;8.10;;
21611;SDS011;47005;52.292;13.452;2023-04-15T11:46:03;8.43;;;7.50;;
21611;SDS011;47005;52.292;13.452;2023-04-15T11:48:30;9.90;;;7.67;;
21611;SDS011;47005;52.292;13.452;2023-04-15T11:51:04;12.43;;;7.87;;
21611;SDS011;47005;52.292;13.452;2023-04-15T11:56:03;10.10;;;7.47;;
21611;SDS011;47005;52.292;13.452;2023-04-15T11:58:30;10.97;;;7.20;;
21611;SDS011;47005;52.292;13.452;2023-04-15T12:00:59;9.70;;;7.77;;
21611;SDS011;47005;52.292;13.452;2023-04-15T12:03:28;12.33;;;7.80;;
21611;SDS011;47005;52.292;13.452;2023-04-15T12:06:05;12.73;;;7.67;;
21611;SDS011;47005;52.292;13.452;2023-04-15T12:13:59;13.67;;;7.33;;
21611;SDS011;47005;52.292;13.452;2023-04-15T12:16:35;10.27;;;7.73;;
21611;SDS011;47005;52.292;13.452;2023-04-15T12:19:04;11.47;;;8.27;;
21611;SDS011;47005;52.292;13.452;2023-04-15T12:21:37;8.33;;;6.57;;
21611;SDS011;47005;52.292;13.452;2023-04-15T12:24:05;9.93;;;7.50;;
21611;SDS011;47005;52.292;13.452;2023-04-15T12:26:34;9.87;;;7.27;;
21611;SDS011;47005;52.292;13.452;2023-04-15T12:31:34;9.53;;;7.00;;
21611;SDS011;47005;52.292;13.452;2023-04-15T12:34:06;9.77;;;7.57;;
21611;SDS011;47005;52.292;13.452;2023-04-15T12:36:32;11.00;;;7.90;;
21611;SDS011;47005;52.292;13.452;2023-04-15T12:39:04;8.93;;;7.03;;
21611;SDS011;47005;52.292;13.452;2023-04-15T12:41:30;9.77;;;7.30;;
21611;SDS011;47005;52.292;13.452;2023-04-15T12:43:57;8.30;;;6.57;;
21611;SDS011;47005;52.292;13.452;2023-04-15T12:46:23;10.73;;;7.27;;
21611;SDS011;47005;52.292;13.452;2023-04-15T12:48:50;10.97;;;7.37;;
21611;SDS011;47005;52.292;13.452;2023-04-15T12:51:18;9.60;;;6.60;;
21611;SDS011;47005;52.292;13.452;2023-04-15T12:53:47;8.00;;;6.30;;
21611;SDS011;47005;52.292;13.452;2023-04-15T12:56:14;9.80;;;7.67;;
21611;SDS011;47005;52.292;13.452;2023-04-15T12:58:41;8.07;;;6.40;;
21611;SDS011;47005;52.292;13.452;2023-04-15T13:01:07;10.53;;;7.50;;
21611;SDS011;47005;52.292;13.452;2023-04-15T13:03:32;9.23;;;6.77;;
21611;SDS011;47005;52.292;13.452;2023-04-15T13:05:58;9.03;;;6.53;;
21611;SDS011;47005;52.292;13.452;2023-04-15T13:08:26;9.27;;;6.73;;
21611;SDS011;47005;52.292;13.452;2023-04-15T13:10:51;11.80;;;6.80;;
21611;SDS011;47005;52.292;13.452;2023-04-15T13:13:17;9.63;;;7.33;;
21611;SDS011;47005;52.292;13.452;2023-04-15T13:15:43;9.60;;;6.63;;
21611;SDS011;47005;52.292;13.452;2023-04-15T13:18:10;10.67;;;6.03;;
21611;SDS011;47005;52.292;13.452;2023-04-15T13:20:35;9.37;;;7.20;;
21611;SDS011;47005;52.292;13.452;2023-04-15T13:23:01;10.40;;;7.20;;
21611;SDS011;47005;52.292;13.452;2023-04-15T13:25:27;9.73;;;6.83;;
21611;SDS011;47005;52.292;13.452;2023-04-15T13:27:52;8.40;;;7.07;;
21611;SDS011;47005;52.292;13.452;2023-04-15T13:30:18;9.63;;;7.47;;
21611;SDS011;47005;52.292;13.452;2023-04-15T13:32:44;10.00;;;6.80;;
21611;SDS011;47005;52.292;13.452;2023-04-15T13:35:10;8.77;;;6.27;;
21611;SDS011;47005;52.292;13.452;2023-04-15T13:37:35;10.67;;;7.37;;
21611;SDS011;47005;52.292;13.452;2023-04-15T13:40:01;10.87;;;7.03;;
21611;SDS011;47005;52.292;13.452;2023-04-15T13:42:27;9.53;;;6.93;;
21611;SDS011;47005;52.292;13.452;2023-04-15T13:44:53;9.03;;;7.07;;
21611;SDS011;47005;52.292;13.452;2023-04-15T13:47:19;11.60;;;7.43;;
21611;SDS011;47005;52.292;13.452;2023-04-15T13:49:45;8.83;;;7.33;;
21611;SDS011;47005;52.292;13.452;2023-04-15T13:52:11;8.07;;;6.67;;
21611;SDS011;47005;52.292;13.452;2023-04-15T13:54:37;11.27;;;7.03;;
21611;SDS011;47005;52.292;13.452;2023-04-15T13:57:02;10.27;;;7.00;;
21611;SDS011;47005;52.292;13.452;2023-04-15T13:59:34;10.63;;;7.40;;
21611;SDS011;47005;52.292;13.452;2023-04-15T14:02:00;9.73;;;7.73;;
21611;SDS011;47005;52.292;13.452;2023-04-15T14:04:26;9.53;;;7.13;;
21611;SDS011;47005;52.292;13.452;2023-04-15T14:06:52;10.50;;;7.27;;
21611;SDS011;47005;52.292;13.452;2023-04-15T14:09:18;10.73;;;7.23;;
21611;SDS011;47005;52.292;13.452;2023-04-15T14:11:46;9.90;;;8.03;;
21611;SDS011;47005;52.292;13.452;2023-04-15T14:14:14;10.00;;;7.07;;
21611;SDS011;47005;52.292;13.452;2023-04-15T14:16:40;10.00;;;7.43;;
21611;SDS011;47005;52.292;13.452;2023-04-15T14:19:06;9.37;;;6.90;;
21611;SDS011;47005;52.292;13.452;2023-04-15T14:21:31;12.90;;;7.80;;
21611;SDS011;47005;52.292;13.452;2023-04-15T14:23:57;11.33;;;7.20;;
21611;SDS011;47005;52.292;13.452;2023-04-15T14:26:23;8.67;;;6.97;;
21611;SDS011;47005;52.292;13.452;2023-04-15T14:28:49;11.87;;;7.97;;
21611;SDS011;47005;52.292;13.452;2023-04-15T14:31:15;9.70;;;7.50;;